createdAt,value
2016-10-06T00:02:03.664Z,46.4
2016-10-06T00:07:04.283Z,46.3
2016-10-06T00:12:03.888Z,46.0
2016-10-06T00:17:04.438Z,46.2
2016-10-06T00:22:03.705Z,46.0
2016-10-06T00:27:04.127Z,46.1
2016-10-06T00:32:03.699Z,46.0
2016-10-06T00:37:04.141Z,46.0
2016-10-06T00:42:03.424Z,46.0
2016-10-06T00:47:04.188Z,46.0
2016-10-06T00:52:03.742Z,46.1
2016-10-06T00:57:04.075Z,46.1
2016-10-06T01:02:03.822Z,46.2
2016-10-06T01:07:03.972Z,46.2
2016-10-06T01:12:04.152Z,46.3
2016-10-06T01:17:03.643Z,46.2
2016-10-06T01:22:04.295Z,46.2
2016-10-06T01:27:03.819Z,46.2
2016-10-06T01:32:04.014Z,46.2
2016-10-06T01:37:03.530Z,46.2
2016-10-06T01:42:03.837Z,46.1
2016-10-06T01:47:04.290Z,46.1
2016-10-06T01:52:03.805Z,45.9
2016-10-06T01:57:04.338Z,45.9
2016-10-06T02:02:03.875Z,45.8
2016-10-06T02:07:03.463Z,45.7
2016-10-06T02:12:03.922Z,45.8
2016-10-06T02:17:04.420Z,45.8
2016-10-06T02:22:03.898Z,45.7
2016-10-06T02:27:04.254Z,45.8
2016-10-06T02:32:04.278Z,45.8
2016-10-06T02:37:03.840Z,45.8
2016-10-06T02:42:03.944Z,45.8
2016-10-06T02:47:04.039Z,45.9
2016-10-06T02:52:04.050Z,45.8
2016-10-06T02:57:04.120Z,45.9
2016-10-06T03:02:04.290Z,46.0
2016-10-06T03:07:03.551Z,46.0
2016-10-06T03:12:03.895Z,46.0
2016-10-06T03:17:04.150Z,46.0
2016-10-06T03:22:04.096Z,46.1
2016-10-06T03:27:04.222Z,46.1
2016-10-06T03:32:04.087Z,46.1
2016-10-06T03:37:04.323Z,46.3
2016-10-06T03:42:04.290Z,46.3
2016-10-06T03:47:04.338Z,46.3
2016-10-06T03:52:03.497Z,46.3
2016-10-06T03:57:03.677Z,46.3
2016-10-06T04:02:03.879Z,46.3
2016-10-06T04:07:03.885Z,46.4
2016-10-06T04:12:04.267Z,46.3
2016-10-06T04:17:04.521Z,46.3
2016-10-06T04:22:03.571Z,46.4
2016-10-06T04:27:03.873Z,46.4
2016-10-06T04:32:04.023Z,46.5
2016-10-06T04:37:04.087Z,46.5
2016-10-06T04:42:04.051Z,46.5
2016-10-06T04:47:04.316Z,46.6
2016-10-06T04:52:04.279Z,46.6
2016-10-06T04:57:03.534Z,46.6
2016-10-06T05:02:06.108Z,46.7
2016-10-06T05:07:03.711Z,46.7
2016-10-06T05:12:04.022Z,46.7
2016-10-06T05:22:03.826Z,46.8
2016-10-06T05:27:04.054Z,47.0
2016-10-06T05:32:32.191Z,47.2
2016-10-06T05:37:04.195Z,47.2
2016-10-06T05:42:03.517Z,47.0
2016-10-06T05:47:34.868Z,47.2
2016-10-06T05:52:03.625Z,47.1
2016-10-06T05:57:04.044Z,47.0
2016-10-06T06:02:36.462Z,47.2
2016-10-06T06:07:04.070Z,47.1
2016-10-06T06:12:04.231Z,47.2
2016-10-06T06:17:35.551Z,47.1
2016-10-06T06:22:03.621Z,47.1
2016-10-06T06:27:04.280Z,47.0
2016-10-06T06:32:31.717Z,47.1
2016-10-06T06:37:03.909Z,47.1
2016-10-06T06:42:03.622Z,47.1
2016-10-06T06:47:36.688Z,47.2
2016-10-06T06:52:03.878Z,47.2
2016-10-06T06:57:03.624Z,47.2
2016-10-06T07:02:31.789Z,47.2
2016-10-06T07:07:03.623Z,47.3
2016-10-06T07:12:04.268Z,47.0
2016-10-06T07:17:32.489Z,47.4
2016-10-06T07:22:04.077Z,47.2
2016-10-06T07:27:04.339Z,46.9
2016-10-06T07:32:31.289Z,46.9
2016-10-06T07:37:03.372Z,46.9
2016-10-06T07:42:03.481Z,46.6
2016-10-06T07:47:37.290Z,46.7
2016-10-06T07:52:03.800Z,47.1
2016-10-06T07:57:03.784Z,47.0
2016-10-06T08:02:31.814Z,47.0
2016-10-06T08:07:03.983Z,46.9
